Time,TemperatureF,DewpointF,PressureIn,WindDirection,WindDirectionDegrees,WindSpeedMPH,WindSpeedGustMPH,Humidity,HourlyPrecipIn,Conditions,Clouds,dailyrainin,SoftwareType,DateUTC
2013-01-22 00:00:00,26.3,25.1,29.81,NW,306,0.0,0.0,95,0.00,,,0.00,WeatherCatV1.01B143,2013-01-22 05:00:00,
2013-01-22 00:05:00,26.3,25.1,29.81,NW,308,0.0,1.0,95,0.00,,,0.00,WeatherCatV1.01B143,2013-01-22 05:05:00,
2013-01-22 00:10:00,26.3,25.1,29.80,WNW,295,0.0,2.0,95,0.00,,,0.00,WeatherCatV1.01B143,2013-01-22 05:10:00,
2013-01-22 00:15:00,26.2,25.0,29.80,North,4,1.0,1.0,95,0.00,,,0.00,WeatherCatV1.01B143,2013-01-22 05:15:00,
2013-01-22 00:20:00,26.2,25.0,29.79,NNE,24,0.0,1.0,95,0.00,,,0.00,WeatherCatV1.01B143,2013-01-22 05:20:00,
2013-01-22 00:25:00,26.1,24.9,29.79,NE,48,0.0,0.0,95,0.00,,,0.00,WeatherCatV1.01B143,2013-01-22 05:25:00,
2013-01-22 00:30:00,26.0,24.8,29.79,NNE,29,0.0,0.0,95,0.00,,,0.00,WeatherCatV1.01B143,2013-01-22 05:30:00,
2013-01-22 00:35:00,25.9,24.7,29.80,North,354,0.0,1.0,95,0.00,,,0.00,WeatherCatV1.01B143,2013-01-22 05:35:00,
2013-01-22 00:40:00,25.8,24.6,29.80,North,357,0.0,2.0,95,0.00,,,0.00,WeatherCatV1.01B143,2013-01-22 05:40:00,
2013-01-22 00:45:00,25.6,24.4,29.81,North,359,0.0,1.0,95,0.00,,,0.00,WeatherCatV1.01B143,2013-01-22 05:45:00,
2013-01-22 00:50:00,25.5,24.3,29.81,NE,44,0.0,1.0,95,0.00,,,0.00,WeatherCatV1.01B143,2013-01-22 05:50:00,
2013-01-22 00:54:00,25.4,24.2,29.81,North,358,1.0,2.0,95,0.00,,,0.00,WeatherCatV1.01B143,2013-01-22 05:54:00,
2013-01-22 00:59:00,25.4,24.2,29.80,North,350,1.0,1.0,95,0.00,,,0.00,WeatherCatV1.01B143,2013-01-22 05:59:00,
2013-01-22 01:04:00,25.3,24.1,29.80,North,7,0.0,1.0,95,0.00,,,0.00,WeatherCatV1.01B143,2013-01-22 06:04:00,
2013-01-22 01:09:00,25.3,24.1,29.80,NNE,27,0.0,0.0,95,0.00,,,0.00,WeatherCatV1.01B143,2013-01-22 06:09:00,
2013-01-22 01:14:00,25.2,24.0,29.80,East,96,0.0,0.0,95,0.00,,,0.00,WeatherCatV1.01B143,2013-01-22 06:14:00,
2013-01-22 01:19:00,25.2,24.0,29.81,ENE,71,0.0,0.0,95,0.00,,,0.00,WeatherCatV1.01B143,2013-01-22 06:19:00,
2013-01-22 01:24:00,25.0,23.8,29.80,ENE,69,0.0,0.0,95,0.00,,,0.00,WeatherCatV1.01B143,2013-01-22 06:24:00,
2013-01-22 01:29:00,24.9,23.7,29.80,NE,55,0.0,0.0,95,0.00,,,0.00,WeatherCatV1.01B143,2013-01-22 06:29:00,
2013-01-22 01:34:00,24.8,23.6,29.80,NW,310,0.0,0.0,95,0.00,,,0.00,WeatherCatV1.01B143,2013-01-22 06:34:00,
2013-01-22 01:39:00,24.8,23.6,29.80,NW,311,0.0,0.0,95,0.00,,,0.00,WeatherCatV1.01B143,2013-01-22 06:39:00,
2013-01-22 01:44:00,24.7,23.5,29.80,NNW,327,0.0,1.0,95,0.00,,,0.00,WeatherCatV1.01B143,2013-01-22 06:44:00,
2013-01-22 01:49:00,24.6,23.4,29.80,NNW,342,0.0,0.0,95,0.00,,,0.00,WeatherCatV1.01B143,2013-01-22 06:49:00,
2013-01-22 01:54:00,24.6,23.4,29.80,WNW,290,0.0,0.0,95,0.00,,,0.00,WeatherCatV1.01B143,2013-01-22 06:54:00,
2013-01-22 01:59:00,24.6,23.4,29.80,WNW,292,0.0,0.0,95,0.00,,,0.00,WeatherCatV1.01B143,2013-01-22 06:59:00,
2013-01-22 02:04:00,24.6,23.4,29.80,WNW,287,0.0,0.0,95,0.00,,,0.00,WeatherCatV1.01B143,2013-01-22 07:04:00,
2013-01-22 02:09:00,24.7,23.5,29.80,WNW,288,0.0,0.0,95,0.00,,,0.00,WeatherCatV1.01B143,2013-01-22 07:09:00,
2013-01-22 02:14:00,24.7,23.5,29.80,WNW,288,0.0,0.0,95,0.00,,,0.00,WeatherCatV1.01B143,2013-01-22 07:14:00,
2013-01-22 02:19:00,24.6,23.4,29.79,WNW,287,0.0,0.0,95,0.00,,,0.00,WeatherCatV1.01B143,2013-01-22 07:19:00,
2013-01-22 02:24:00,24.5,23.3,29.79,WNW,287,0.0,0.0,95,0.00,,,0.00,WeatherCatV1.01B143,2013-01-22 07:24:00,
2013-01-22 02:29:00,24.3,23.1,29.79,WNW,287,0.0,0.0,95,0.00,,,0.00,WeatherCatV1.01B143,2013-01-22 07:29:00,
2013-01-22 02:34:00,24.2,23.0,29.79,WNW,287,0.0,0.0,95,0.00,,,0.00,WeatherCatV1.01B143,2013-01-22 07:34:00,
2013-01-22 02:39:00,24.4,23.2,29.79,WNW,282,0.0,0.0,95,0.00,,,0.00,WeatherCatV1.01B143,2013-01-22 07:39:00,
2013-01-22 02:44:00,24.4,23.2,29.79,WNW,288,0.0,0.0,95,0.00,,,0.00,WeatherCatV1.01B143,2013-01-22 07:44:00,
2013-01-22 02:49:00,24.4,23.2,29.79,WNW,294,0.0,0.0,95,0.00,,,0.00,WeatherCatV1.01B143,2013-01-22 07:49:00,
2013-01-22 02:54:00,24.3,23.1,29.79,WNW,289,0.0,0.0,95,0.00,,,0.00,WeatherCatV1.01B143,2013-01-22 07:54:00,
2013-01-22 02:59:00,24.4,23.2,29.79,WNW,285,0.0,0.0,95,0.00,,,0.00,WeatherCatV1.01B143,2013-01-22 07:59:00,
2013-01-22 03:04:00,24.2,23.0,29.80,NW,304,0.0,1.0,95,0.00,,,0.00,WeatherCatV1.01B143,2013-01-22 08:04:00,
2013-01-22 03:09:00,24.1,22.6,29.80,WNW,299,0.0,1.0,94,0.00,,,0.00,WeatherCatV1.01B143,2013-01-22 08:09:00,
2013-01-22 03:14:00,24.0,22.5,29.79,NW,304,2.0,2.0,94,0.00,,,0.00,WeatherCatV1.01B143,2013-01-22 08:14:00,
2013-01-22 03:19:00,24.0,22.5,29.79,WNW,292,0.0,3.0,94,0.00,,,0.00,WeatherCatV1.01B143,2013-01-22 08:19:00,
2013-01-22 03:24:00,23.9,22.4,29.79,WNW,282,1.0,3.0,94,0.00,,,0.00,WeatherCatV1.01B143,2013-01-22 08:24:00,
2013-01-22 03:29:00,23.7,22.2,29.79,WNW,301,3.0,6.0,94,0.00,,,0.00,WeatherCatV1.01B143,2013-01-22 08:29:00,
2013-01-22 03:34:00,23.6,22.1,29.79,WNW,299,2.0,4.0,94,0.00,,,0.00,WeatherCatV1.01B143,2013-01-22 08:34:00,
2013-01-22 03:39:00,23.5,22.0,29.79,WNW,294,4.0,6.0,94,0.00,,,0.00,WeatherCatV1.01B143,2013-01-22 08:39:00,
2013-01-22 03:44:00,23.4,21.9,29.79,WNW,290,1.0,4.0,94,0.00,,,0.00,WeatherCatV1.01B143,2013-01-22 08:44:00,
2013-01-22 03:49:00,23.4,21.9,29.79,WNW,284,1.0,5.0,94,0.00,,,0.00,WeatherCatV1.01B143,2013-01-22 08:49:00,
2013-01-22 03:54:00,23.3,21.8,29.79,WNW,301,3.0,3.0,94,0.00,,,0.00,WeatherCatV1.01B143,2013-01-22 08:54:00,
2013-01-22 03:59:00,23.2,21.7,29.80,West,280,1.0,3.0,94,0.00,,,0.00,WeatherCatV1.01B143,2013-01-22 08:59:00,
2013-01-22 04:04:00,23.0,21.5,29.80,WNW,301,5.0,5.0,94,0.00,,,0.00,WeatherCatV1.01B143,2013-01-22 09:04:00,
2013-01-22 04:09:00,22.9,21.4,29.80,WNW,302,1.0,5.0,94,0.00,,,0.00,WeatherCatV1.01B143,2013-01-22 09:09:00,
2013-01-22 04:14:00,22.8,21.3,29.80,WNW,297,6.0,6.0,94,0.00,,,0.00,WeatherCatV1.01B143,2013-01-22 09:14:00,
2013-01-22 04:19:00,22.7,21.2,29.80,WNW,301,6.0,7.0,94,0.00,,,0.00,WeatherCatV1.01B143,2013-01-22 09:19:00,
2013-01-22 04:24:00,22.5,21.0,29.79,WNW,299,8.0,8.0,94,0.00,,,0.00,WeatherCatV1.01B143,2013-01-22 09:24:00,
2013-01-22 04:29:00,22.5,20.8,29.80,NW,310,6.0,7.0,93,0.00,,,0.00,WeatherCatV1.01B143,2013-01-22 09:29:00,
2013-01-22 04:34:00,22.4,20.7,29.80,WNW,287,5.0,7.0,93,0.00,,,0.00,WeatherCatV1.01B143,2013-01-22 09:34:00,
2013-01-22 04:39:00,22.3,20.6,29.80,WNW,301,6.0,9.0,93,0.00,,,0.00,WeatherCatV1.01B143,2013-01-22 09:39:00,
2013-01-22 04:44:00,22.3,20.6,29.80,NW,305,7.0,8.0,93,0.00,,,0.00,WeatherCatV1.01B143,2013-01-22 09:44:00,
2013-01-22 04:49:00,23.3,21.6,29.80,WNW,297,4.0,4.0,93,0.00,,,0.00,WeatherCatV1.01B143,2013-01-22 09:49:00,
2013-01-22 04:54:00,23.3,21.6,29.80,WNW,297,4.0,4.0,93,0.00,,,0.00,WeatherCatV1.01B143,2013-01-22 09:54:00,
2013-01-22 04:59:00,-999.0,-99.9,29.81,North,-999,-999.0,4.0,-999,0.00,,,0.00,WeatherCatV1.01B143,2013-01-22 09:59:00,
2013-01-22 05:04:00,-999.0,-99.9,29.81,North,-999,-999.0,0.0,-999,0.00,,,0.00,WeatherCatV1.01B143,2013-01-22 10:04:00,
2013-01-22 05:09:00,-999.0,-99.9,29.81,North,-999,-999.0,0.0,-999,0.00,,,0.00,WeatherCatV1.01B143,2013-01-22 10:09:00,
2013-01-22 05:14:00,-999.0,-99.9,29.81,North,-999,-999.0,0.0,-999,0.00,,,0.00,WeatherCatV1.01B143,2013-01-22 10:14:00,
2013-01-22 05:19:00,-999.0,-99.9,29.82,North,-999,-999.0,0.0,-999,0.00,,,0.00,WeatherCatV1.01B143,2013-01-22 10:19:00,
2013-01-22 05:24:00,-999.0,-99.9,29.82,North,-999,-999.0,0.0,-999,0.00,,,0.00,WeatherCatV1.01B143,2013-01-22 10:24:00,
2013-01-22 05:29:00,-999.0,-99.9,29.82,North,-999,-999.0,0.0,-999,0.00,,,0.00,WeatherCatV1.01B143,2013-01-22 10:29:00,
2013-01-22 05:34:00,-999.0,-99.9,29.82,North,-999,-999.0,0.0,-999,0.00,,,0.00,WeatherCatV1.01B143,2013-01-22 10:34:00,
2013-01-22 05:39:00,-999.0,-99.9,29.83,North,-999,-999.0,0.0,-999,0.00,,,0.00,WeatherCatV1.01B143,2013-01-22 10:39:00,
2013-01-22 05:44:00,-999.0,-99.9,29.83,North,-999,-999.0,0.0,-999,0.00,,,0.00,WeatherCatV1.01B143,2013-01-22 10:44:00,
2013-01-22 05:49:00,-999.0,-99.9,29.83,North,-999,-999.0,0.0,-999,0.00,,,0.00,WeatherCatV1.01B143,2013-01-22 10:49:00,
2013-01-22 05:54:00,-999.0,-99.9,29.83,North,-999,-999.0,0.0,-999,0.00,,,0.00,WeatherCatV1.01B143,2013-01-22 10:54:00,
2013-01-22 05:59:00,-999.0,-99.9,29.84,North,-999,-999.0,0.0,-999,0.00,,,0.00,WeatherCatV1.01B143,2013-01-22 10:59:00,
2013-01-22 06:04:00,-999.0,-99.9,29.84,North,-999,-999.0,0.0,-999,0.00,,,0.00,WeatherCatV1.01B143,2013-01-22 11:04:00,
2013-01-22 06:09:00,-999.0,-99.9,29.84,North,-999,-999.0,0.0,-999,0.00,,,0.00,WeatherCatV1.01B143,2013-01-22 11:09:00,
2013-01-22 06:14:00,-999.0,-99.9,29.85,North,-999,-999.0,0.0,-999,0.00,,,0.00,WeatherCatV1.01B143,2013-01-22 11:14:00,
2013-01-22 06:19:00,-999.0,-99.9,29.85,North,-999,-999.0,0.0,-999,0.00,,,0.00,WeatherCatV1.01B143,2013-01-22 11:19:00,
2013-01-22 06:24:00,-999.0,-99.9,29.85,North,-999,-999.0,0.0,-999,0.00,,,0.00,WeatherCatV1.01B143,2013-01-22 11:24:00,
2013-01-22 06:29:00,-999.0,-99.9,29.86,North,-999,-999.0,0.0,-999,0.00,,,0.00,WeatherCatV1.01B143,2013-01-22 11:29:00,
2013-01-22 06:34:00,-999.0,-99.9,29.86,North,-999,-999.0,0.0,-999,0.00,,,0.00,WeatherCatV1.01B143,2013-01-22 11:34:00,
2013-01-22 06:39:00,-999.0,-99.9,29.86,North,-999,-999.0,0.0,-999,0.00,,,0.00,WeatherCatV1.01B143,2013-01-22 11:39:00,
2013-01-22 06:44:00,-999.0,-99.9,29.86,North,-999,-999.0,0.0,-999,0.00,,,0.00,WeatherCatV1.01B143,2013-01-22 11:44:00,
2013-01-22 06:49:00,-999.0,-99.9,29.87,North,-999,-999.0,0.0,-999,0.00,,,0.00,WeatherCatV1.01B143,2013-01-22 11:49:00,
2013-01-22 06:54:00,-999.0,-99.9,29.87,North,-999,-999.0,0.0,-999,0.00,,,0.00,WeatherCatV1.01B143,2013-01-22 11:54:00,
2013-01-22 06:59:00,-999.0,-99.9,29.87,North,-999,-999.0,0.0,-999,0.00,,,0.00,WeatherCatV1.01B143,2013-01-22 11:59:00,
2013-01-22 07:04:00,-999.0,-99.9,29.87,North,-999,-999.0,0.0,-999,0.00,,,0.00,WeatherCatV1.01B143,2013-01-22 12:04:00,
2013-01-22 07:09:00,-999.0,-99.9,29.87,North,-999,-999.0,0.0,-999,0.00,,,0.00,WeatherCatV1.01B143,2013-01-22 12:09:00,
2013-01-22 07:14:00,-999.0,-99.9,29.87,North,-999,-999.0,0.0,-999,0.00,,,0.00,WeatherCatV1.01B143,2013-01-22 12:14:00,
2013-01-22 07:19:00,-999.0,-99.9,29.87,North,-999,-999.0,0.0,-999,0.00,,,0.00,WeatherCatV1.01B143,2013-01-22 12:19:00,
2013-01-22 07:21:00,-999.0,-99.9,29.87,North,-999,-999.0,0.0,-999,0.00,,,0.00,WeatherCatV1.01B143,2013-01-22 12:21:00,
2013-01-22 07:26:00,-999.0,-99.9,29.88,North,-999,-999.0,0.0,-999,0.00,,,0.00,WeatherCatV1.01B143,2013-01-22 12:26:00,
2013-01-22 07:31:00,-999.0,-99.9,29.88,North,-999,-999.0,0.0,-999,0.00,,,0.00,WeatherCatV1.01B143,2013-01-22 12:31:00,
2013-01-22 07:36:00,-999.0,-99.9,29.88,North,-999,-999.0,0.0,-999,0.00,,,0.00,WeatherCatV1.01B143,2013-01-22 12:36:00,
2013-01-22 07:41:00,-999.0,-99.9,29.88,North,-999,-999.0,0.0,-999,0.00,,,0.00,WeatherCatV1.01B143,2013-01-22 12:41:00,
2013-01-22 07:46:00,19.6,13.6,29.89,NNW,330,17.0,27.0,77,0.00,,,0.00,WeatherCatV1.01B143,2013-01-22 12:46:00,
2013-01-22 07:51:00,19.7,13.4,29.89,NNW,332,18.0,24.0,76,0.00,,,0.00,WeatherCatV1.01B143,2013-01-22 12:51:00,
2013-01-22 07:56:00,19.8,13.2,29.89,NW,313,19.0,21.0,75,0.00,,,0.00,WeatherCatV1.01B143,2013-01-22 12:56:00,
2013-01-22 08:01:00,19.7,12.5,29.90,WNW,293,18.0,26.0,73,0.00,,,0.00,WeatherCatV1.01B143,2013-01-22 13:01:00,
2013-01-22 08:06:00,19.8,12.3,29.90,NW,310,23.0,24.0,72,0.00,,,0.00,WeatherCatV1.01B143,2013-01-22 13:06:00,
2013-01-22 08:11:00,19.8,11.9,29.90,NNW,328,19.0,26.0,71,0.00,,,0.00,WeatherCatV1.01B143,2013-01-22 13:11:00,
2013-01-22 08:16:00,19.9,11.4,29.91,WNW,297,19.0,26.0,69,0.00,,,0.00,WeatherCatV1.01B143,2013-01-22 13:16:00,
2013-01-22 08:21:00,20.0,10.8,29.91,NW,312,24.0,30.0,67,0.00,,,0.00,WeatherCatV1.01B143,2013-01-22 13:21:00,
2013-01-22 08:26:00,20.1,10.6,29.92,WNW,298,24.0,33.0,66,0.00,,,0.00,WeatherCatV1.01B143,2013-01-22 13:26:00,
2013-01-22 08:31:00,20.2,10.0,29.91,North,359,18.0,35.0,64,0.00,,,0.00,WeatherCatV1.01B143,2013-01-22 13:31:00,
2013-01-22 08:36:00,20.3,10.1,29.91,WNW,294,16.0,22.0,64,0.00,,,0.00,WeatherCatV1.01B143,2013-01-22 13:36:00,
2013-01-22 08:41:00,20.3,9.0,29.91,NW,304,26.0,31.0,61,0.00,,,0.00,WeatherCatV1.01B143,2013-01-22 13:41:00,
2013-01-22 08:46:00,20.4,9.5,29.92,NNW,348,26.0,28.0,62,0.00,,,0.00,WeatherCatV1.01B143,2013-01-22 13:46:00,
2013-01-22 08:51:00,20.5,9.6,29.92,NW,314,17.0,23.0,62,0.00,,,0.00,WeatherCatV1.01B143,2013-01-22 13:51:00,
2013-01-22 08:56:00,20.5,8.1,29.92,NW,323,21.0,29.0,58,0.00,,,0.00,WeatherCatV1.01B143,2013-01-22 13:56:00,
2013-01-22 09:01:00,20.6,7.4,29.93,NW,307,19.0,27.0,56,0.00,,,0.00,WeatherCatV1.01B143,2013-01-22 14:01:00,
2013-01-22 09:06:00,20.7,7.9,29.93,NW,306,17.0,25.0,57,0.00,,,0.00,WeatherCatV1.01B143,2013-01-22 14:06:00,
2013-01-22 09:11:00,20.9,7.7,29.92,North,350,10.0,22.0,56,0.00,,,0.00,WeatherCatV1.01B143,2013-01-22 14:11:00,
2013-01-22 09:16:00,20.9,7.3,29.93,WNW,301,13.0,21.0,55,0.00,,,0.00,WeatherCatV1.01B143,2013-01-22 14:16:00,
2013-01-22 09:21:00,21.2,8.4,29.93,WNW,303,14.0,24.0,57,0.00,,,0.00,WeatherCatV1.01B143,2013-01-22 14:21:00,
2013-01-22 09:26:00,21.2,7.2,29.93,WNW,301,24.0,26.0,54,0.00,,,0.00,WeatherCatV1.01B143,2013-01-22 14:26:00,
2013-01-22 09:31:00,21.2,5.5,29.93,NW,310,29.0,31.0,50,0.00,,,0.00,WeatherCatV1.01B143,2013-01-22 14:31:00,
2013-01-22 09:36:00,21.1,5.0,29.93,NW,306,20.0,38.0,49,0.00,,,0.00,WeatherCatV1.01B143,2013-01-22 14:36:00,
2013-01-22 09:41:00,21.3,4.7,29.93,NW,314,20.0,27.0,48,0.00,,,0.00,WeatherCatV1.01B143,2013-01-22 14:41:00,
2013-01-22 09:46:00,21.4,4.3,29.93,NW,307,17.0,25.0,47,0.00,,,0.00,WeatherCatV1.01B143,2013-01-22 14:46:00,
2013-01-22 09:51:00,21.5,3.5,29.93,NW,306,28.0,33.0,45,0.00,,,0.00,WeatherCatV1.01B143,2013-01-22 14:51:00,
2013-01-22 09:56:00,21.4,2.9,29.94,NW,311,30.0,35.0,44,0.00,,,0.00,WeatherCatV1.01B143,2013-01-22 14:56:00,
2013-01-22 10:01:00,21.3,2.8,29.94,NW,307,24.0,36.0,44,0.00,,,0.00,WeatherCatV1.01B143,2013-01-22 15:01:00,
2013-01-22 10:06:00,21.6,4.5,29.94,WNW,301,20.0,30.0,47,0.00,,,0.00,WeatherCatV1.01B143,2013-01-22 15:06:00,
2013-01-22 10:11:00,21.7,2.7,29.94,WNW,296,20.0,32.0,43,0.00,,,0.00,WeatherCatV1.01B143,2013-01-22 15:11:00,
2013-01-22 10:16:00,21.7,3.2,29.94,West,277,17.0,24.0,44,0.00,,,0.00,WeatherCatV1.01B143,2013-01-22 15:16:00,
2013-01-22 10:21:00,22.1,4.0,29.94,WNW,301,24.0,26.0,45,0.00,,,0.00,WeatherCatV1.01B143,2013-01-22 15:21:00,
2013-01-22 10:26:00,22.2,4.1,29.93,North,350,13.0,22.0,45,0.00,,,0.00,WeatherCatV1.01B143,2013-01-22 15:26:00,
2013-01-22 10:31:00,22.4,3.3,29.94,WNW,301,16.0,25.0,43,0.00,,,0.00,WeatherCatV1.01B143,2013-01-22 15:31:00,
2013-01-22 10:36:00,22.4,3.8,29.94,WNW,288,18.0,23.0,44,0.00,,,0.00,WeatherCatV1.01B143,2013-01-22 15:36:00,
2013-01-22 10:41:00,22.2,2.6,29.94,NW,307,27.0,28.0,42,0.00,,,0.00,WeatherCatV1.01B143,2013-01-22 15:41:00,
2013-01-22 10:46:00,22.1,2.0,29.94,NNW,337,17.0,24.0,41,0.00,,,0.00,WeatherCatV1.01B143,2013-01-22 15:46:00,
2013-01-22 10:51:00,22.1,1.5,29.94,NNW,330,13.0,26.0,40,0.00,,,0.00,WeatherCatV1.01B143,2013-01-22 15:51:00,
2013-01-22 10:56:00,22.2,2.1,29.94,North,359,19.0,25.0,41,0.00,,,0.00,WeatherCatV1.01B143,2013-01-22 15:56:00,
2013-01-22 11:01:00,22.4,2.8,29.94,WNW,303,21.0,29.0,42,0.00,,,0.00,WeatherCatV1.01B143,2013-01-22 16:01:00,
2013-01-22 11:06:00,22.3,1.7,29.94,NW,306,17.0,30.0,40,0.00,,,0.00,WeatherCatV1.01B143,2013-01-22 16:06:00,
2013-01-22 11:11:00,22.1,1.5,29.94,WNW,301,27.0,28.0,40,0.00,,,0.00,WeatherCatV1.01B143,2013-01-22 16:11:00,
2013-01-22 11:16:00,22.0,1.4,29.94,NW,306,17.0,26.0,40,0.00,,,0.00,WeatherCatV1.01B143,2013-01-22 16:16:00,
2013-01-22 11:21:00,22.4,2.3,29.94,NW,309,21.0,24.0,41,0.00,,,0.00,WeatherCatV1.01B143,2013-01-22 16:21:00,
2013-01-22 11:26:00,22.6,2.0,29.94,NW,309,16.0,24.0,40,0.00,,,0.00,WeatherCatV1.01B143,2013-01-22 16:26:00,
2013-01-22 11:31:00,22.6,1.4,29.94,NW,309,18.0,25.0,39,0.00,,,0.00,WeatherCatV1.01B143,2013-01-22 16:31:00,
2013-01-22 11:36:00,22.7,1.5,29.94,WNW,298,13.0,22.0,39,0.00,,,0.00,WeatherCatV1.01B143,2013-01-22 16:36:00,
2013-01-22 11:41:00,22.9,2.8,29.94,NW,314,18.0,18.0,41,0.00,,,0.00,WeatherCatV1.01B143,2013-01-22 16:41:00,
2013-01-22 11:46:00,23.1,1.9,29.94,WNW,301,11.0,22.0,39,0.00,,,0.00,WeatherCatV1.01B143,2013-01-22 16:46:00,
2013-01-22 11:51:00,23.0,1.8,29.93,WNW,292,17.0,25.0,39,0.00,,,0.00,WeatherCatV1.01B143,2013-01-22 16:51:00,
2013-01-22 11:56:00,23.4,3.7,29.93,NW,316,17.0,22.0,42,0.00,,,0.00,WeatherCatV1.01B143,2013-01-22 16:56:00,
2013-01-22 12:01:00,23.4,3.2,29.93,WNW,295,18.0,21.0,41,0.00,,,0.00,WeatherCatV1.01B143,2013-01-22 17:01:00,
2013-01-22 12:06:00,23.5,3.3,29.93,WNW,282,16.0,23.0,41,0.00,,,0.00,WeatherCatV1.01B143,2013-01-22 17:06:00,
2013-01-22 12:11:00,23.2,2.5,29.93,West,270,14.0,21.0,40,0.00,,,0.00,WeatherCatV1.01B143,2013-01-22 17:11:00,
2013-01-22 12:16:00,23.6,3.4,29.93,NW,311,16.0,24.0,41,0.00,,,0.00,WeatherCatV1.01B143,2013-01-22 17:16:00,
2013-01-22 12:21:00,23.7,3.5,29.93,WNW,299,20.0,22.0,41,0.00,,,0.00,WeatherCatV1.01B143,2013-01-22 17:21:00,
2013-01-22 12:26:00,23.7,4.0,29.92,West,269,22.0,22.0,42,0.00,,,0.00,WeatherCatV1.01B143,2013-01-22 17:26:00,
2013-01-22 12:31:00,23.5,3.8,29.92,West,281,15.0,26.0,42,0.00,,,0.00,WeatherCatV1.01B143,2013-01-22 17:31:00,
2013-01-22 12:36:00,23.3,2.6,29.92,WNW,283,15.0,22.0,40,0.00,,,0.00,WeatherCatV1.01B143,2013-01-22 17:36:00,
2013-01-22 12:41:00,23.2,3.5,29.92,WNW,293,12.0,18.0,42,0.00,,,0.00,WeatherCatV1.01B143,2013-01-22 17:41:00,
2013-01-22 12:46:00,23.2,4.6,29.92,WNW,291,18.0,20.0,44,0.00,,,0.00,WeatherCatV1.01B143,2013-01-22 17:46:00,
2013-01-22 12:51:00,23.2,3.5,29.92,WNW,283,16.0,20.0,42,0.00,,,0.00,WeatherCatV1.01B143,2013-01-22 17:51:00,
2013-01-22 12:56:00,23.8,5.1,29.92,WNW,284,15.0,20.0,44,0.00,,,0.00,WeatherCatV1.01B143,2013-01-22 17:56:00,
2013-01-22 13:01:00,23.8,3.0,29.92,WNW,287,18.0,24.0,40,0.00,,,0.00,WeatherCatV1.01B143,2013-01-22 18:01:00,
2013-01-22 13:06:00,23.8,3.6,29.92,NW,320,17.0,18.0,41,0.00,,,0.00,WeatherCatV1.01B143,2013-01-22 18:06:00,
2013-01-22 13:11:00,23.5,3.3,29.92,NW,309,10.0,16.0,41,0.00,,,0.00,WeatherCatV1.01B143,2013-01-22 18:11:00,
2013-01-22 13:16:00,23.9,3.1,29.92,NW,305,9.0,25.0,40,0.00,,,0.00,WeatherCatV1.01B143,2013-01-22 18:16:00,
2013-01-22 13:22:00,23.6,1.2,29.92,NW,310,17.0,28.0,37,0.00,,,0.00,WeatherCatV1.01B143,2013-01-22 18:22:00,
2013-01-22 13:27:00,23.8,3.0,29.92,WNW,294,17.0,23.0,40,0.00,,,0.00,WeatherCatV1.01B143,2013-01-22 18:27:00,
2013-01-22 13:32:00,23.4,1.0,29.92,West,275,21.0,26.0,37,0.00,,,0.00,WeatherCatV1.01B143,2013-01-22 18:32:00,
2013-01-22 13:37:00,23.3,0.9,29.92,NW,319,20.0,28.0,37,0.00,,,0.00,WeatherCatV1.01B143,2013-01-22 18:37:00,
2013-01-22 13:42:00,23.2,0.8,29.92,WNW,297,20.0,24.0,37,0.00,,,0.00,WeatherCatV1.01B143,2013-01-22 18:42:00,
2013-01-22 13:47:00,23.4,1.6,29.92,WNW,290,23.0,23.0,38,0.00,,,0.00,WeatherCatV1.01B143,2013-01-22 18:47:00,
2013-01-22 13:52:00,23.4,2.1,29.92,WNW,296,24.0,26.0,39,0.00,,,0.00,WeatherCatV1.01B143,2013-01-22 18:52:00,
2013-01-22 13:57:00,23.4,1.6,29.93,NW,305,13.0,24.0,38,0.00,,,0.00,WeatherCatV1.01B143,2013-01-22 18:57:00,
2013-01-22 14:02:00,23.3,0.3,29.93,WNW,302,21.0,25.0,36,0.00,,,0.00,WeatherCatV1.01B143,2013-01-22 19:02:00,
2013-01-22 14:07:00,23.4,1.6,29.93,WNW,301,20.0,20.0,38,0.00,,,0.00,WeatherCatV1.01B143,2013-01-22 19:07:00,
2013-01-22 14:12:00,23.3,0.3,29.93,NW,318,16.0,22.0,36,0.00,,,0.00,WeatherCatV1.01B143,2013-01-22 19:12:00,
2013-01-22 14:17:00,23.2,0.2,29.93,NW,313,12.0,29.0,36,0.00,,,0.00,WeatherCatV1.01B143,2013-01-22 19:17:00,
2013-01-22 14:22:00,23.4,-0.2,29.93,NW,313,16.0,20.0,35,0.00,,,0.00,WeatherCatV1.01B143,2013-01-22 19:22:00,
2013-01-22 14:27:00,23.4,0.4,29.93,West,277,21.0,24.0,36,0.00,,,0.00,WeatherCatV1.01B143,2013-01-22 19:27:00,
2013-01-22 14:32:00,23.3,0.9,29.93,WNW,283,27.0,27.0,37,0.00,,,0.00,WeatherCatV1.01B143,2013-01-22 19:32:00,
2013-01-22 14:37:00,23.1,0.7,29.94,NW,306,18.0,25.0,37,0.00,,,0.00,WeatherCatV1.01B143,2013-01-22 19:37:00,
2013-01-22 14:42:00,23.1,0.7,29.94,WNW,290,12.0,23.0,37,0.00,,,0.00,WeatherCatV1.01B143,2013-01-22 19:42:00,
2013-01-22 14:47:00,22.9,-1.2,29.94,WNW,294,16.0,26.0,34,0.00,,,0.00,WeatherCatV1.01B143,2013-01-22 19:47:00,
2013-01-22 14:52:00,22.8,-0.7,29.94,NW,306,13.0,19.0,35,0.00,,,0.00,WeatherCatV1.01B143,2013-01-22 19:52:00,
2013-01-22 14:57:00,23.0,1.2,29.95,NW,322,18.0,18.0,38,0.00,,,0.00,WeatherCatV1.01B143,2013-01-22 19:57:00,
2013-01-22 15:02:00,22.8,1.0,29.95,NW,316,21.0,27.0,38,0.00,,,0.00,WeatherCatV1.01B143,2013-01-22 20:02:00,
2013-01-22 15:07:00,22.4,1.2,29.95,NW,306,20.0,25.0,39,0.00,,,0.00,WeatherCatV1.01B143,2013-01-22 20:07:00,
2013-01-22 15:12:00,22.3,0.0,29.95,WNW,299,16.0,22.0,37,0.00,,,0.00,WeatherCatV1.01B143,2013-01-22 20:12:00,
2013-01-22 15:17:00,22.1,-0.2,29.95,NW,305,16.0,22.0,37,0.00,,,0.00,WeatherCatV1.01B143,2013-01-22 20:17:00,
2013-01-22 15:22:00,22.4,1.2,29.95,NW,305,14.0,20.0,39,0.00,,,0.00,WeatherCatV1.01B143,2013-01-22 20:22:00,
2013-01-22 15:27:00,22.4,1.2,29.95,NW,308,21.0,21.0,39,0.00,,,0.00,WeatherCatV1.01B143,2013-01-22 20:27:00,
2013-01-22 15:32:00,22.4,-0.5,29.95,WNW,297,26.0,26.0,36,0.00,,,0.00,WeatherCatV1.01B143,2013-01-22 20:32:00,
2013-01-22 15:37:00,22.3,0.0,29.95,NW,313,18.0,22.0,37,0.00,,,0.00,WeatherCatV1.01B143,2013-01-22 20:37:00,
2013-01-22 15:42:00,22.1,-1.9,29.96,NW,318,14.0,26.0,34,0.00,,,0.00,WeatherCatV1.01B143,2013-01-22 20:42:00,
2013-01-22 15:47:00,22.1,-0.7,29.96,WNW,285,16.0,21.0,36,0.00,,,0.00,WeatherCatV1.01B143,2013-01-22 20:47:00,
2013-01-22 15:52:00,22.1,-1.3,29.96,WNW,296,11.0,18.0,35,0.00,,,0.00,WeatherCatV1.01B143,2013-01-22 20:52:00,
2013-01-22 15:57:00,22.1,-1.3,29.96,WNW,292,10.0,20.0,35,0.00,,,0.00,WeatherCatV1.01B143,2013-01-22 20:57:00,
2013-01-22 16:02:00,22.1,-0.2,29.97,WNW,295,15.0,22.0,37,0.00,,,0.00,WeatherCatV1.01B143,2013-01-22 21:02:00,
2013-01-22 16:07:00,22.2,1.1,29.97,NW,304,9.0,19.0,39,0.00,,,0.00,WeatherCatV1.01B143,2013-01-22 21:07:00,
2013-01-22 16:12:00,22.1,-0.2,29.97,NW,305,17.0,18.0,37,0.00,,,0.00,WeatherCatV1.01B143,2013-01-22 21:12:00,
2013-01-22 16:17:00,21.9,-0.3,29.97,WNW,295,7.0,17.0,37,0.00,,,0.00,WeatherCatV1.01B143,2013-01-22 21:17:00,
2013-01-22 16:22:00,21.9,0.2,29.97,NW,306,11.0,17.0,38,0.00,,,0.00,WeatherCatV1.01B143,2013-01-22 21:22:00,
2013-01-22 16:27:00,21.7,0.1,29.97,NW,305,11.0,17.0,38,0.00,,,0.00,WeatherCatV1.01B143,2013-01-22 21:27:00,
2013-01-22 16:32:00,21.5,-0.1,29.98,NW,304,14.0,14.0,38,0.00,,,0.00,WeatherCatV1.01B143,2013-01-22 21:32:00,
2013-01-22 16:37:00,21.4,0.3,29.98,WNW,298,12.0,13.0,39,0.00,,,0.00,WeatherCatV1.01B143,2013-01-22 21:37:00,
2013-01-22 16:42:00,21.2,0.7,29.98,NNW,327,9.0,16.0,40,0.00,,,0.00,WeatherCatV1.01B143,2013-01-22 21:42:00,
2013-01-22 16:47:00,21.0,0.0,29.98,NW,305,5.0,13.0,39,0.00,,,0.00,WeatherCatV1.01B143,2013-01-22 21:47:00,
2013-01-22 16:52:00,20.8,0.3,29.99,NW,307,16.0,16.0,40,0.00,,,0.00,WeatherCatV1.01B143,2013-01-22 21:52:00,
2013-01-22 16:57:00,20.6,0.1,29.99,WNW,294,7.0,14.0,40,0.00,,,0.00,WeatherCatV1.01B143,2013-01-22 21:57:00,
2013-01-22 17:02:00,20.5,-0.5,30.00,NW,307,14.0,17.0,39,0.00,,,0.00,WeatherCatV1.01B143,2013-01-22 22:02:00,
2013-01-22 17:07:00,20.4,-0.6,30.00,NW,325,14.0,19.0,39,0.00,,,0.00,WeatherCatV1.01B143,2013-01-22 22:07:00,
2013-01-22 17:12:00,20.5,0.1,30.00,NW,305,14.0,19.0,40,0.00,,,0.00,WeatherCatV1.01B143,2013-01-22 22:12:00,
2013-01-22 17:17:00,20.3,0.4,30.01,NW,308,14.0,15.0,41,0.00,,,0.00,WeatherCatV1.01B143,2013-01-22 22:17:00,
2013-01-22 17:22:00,20.2,-0.2,30.01,NW,320,14.0,18.0,40,0.00,,,0.00,WeatherCatV1.01B143,2013-01-22 22:22:00,
2013-01-22 17:26:00,20.1,0.2,30.01,WNW,301,14.0,15.0,41,0.00,,,0.00,WeatherCatV1.01B143,2013-01-22 22:26:00,
2013-01-22 17:31:00,20.0,0.1,30.02,WNW,287,10.0,17.0,41,0.00,,,0.00,WeatherCatV1.01B143,2013-01-22 22:31:00,
2013-01-22 17:36:00,19.9,-0.5,30.02,WNW,299,13.0,18.0,40,0.00,,,0.00,WeatherCatV1.01B143,2013-01-22 22:36:00,
2013-01-22 17:41:00,19.9,1.1,30.03,NW,305,11.0,15.0,43,0.00,,,0.00,WeatherCatV1.01B143,2013-01-22 22:41:00,
2013-01-22 17:46:00,19.8,0.5,30.03,WNW,301,17.0,17.0,42,0.00,,,0.00,WeatherCatV1.01B143,2013-01-22 22:46:00,
2013-01-22 17:51:00,19.7,0.9,30.03,NNW,347,12.0,15.0,43,0.00,,,0.00,WeatherCatV1.01B143,2013-01-22 22:51:00,
2013-01-22 17:56:00,19.6,0.8,30.04,NW,306,10.0,11.0,43,0.00,,,0.00,WeatherCatV1.01B143,2013-01-22 22:56:00,
2013-01-22 18:01:00,19.6,0.3,30.04,North,352,10.0,16.0,42,0.00,,,0.00,WeatherCatV1.01B143,2013-01-22 23:01:00,
2013-01-22 18:06:00,19.5,1.2,30.04,NW,304,5.0,8.0,44,0.00,,,0.00,WeatherCatV1.01B143,2013-01-22 23:06:00,
2013-01-22 18:11:00,19.2,1.4,30.05,NW,306,6.0,7.0,45,0.00,,,0.00,WeatherCatV1.01B143,2013-01-22 23:11:00,
2013-01-22 18:16:00,19.1,0.8,30.05,NW,322,8.0,9.0,44,0.00,,,0.00,WeatherCatV1.01B143,2013-01-22 23:16:00,
2013-01-22 18:21:00,19.0,0.7,30.05,NW,311,9.0,11.0,44,0.00,,,0.00,WeatherCatV1.01B143,2013-01-22 23:21:00,
2013-01-22 18:26:00,18.9,1.1,30.06,NW,311,7.0,10.0,45,0.00,,,0.00,WeatherCatV1.01B143,2013-01-22 23:26:00,
2013-01-22 18:31:00,18.9,1.1,30.06,NW,313,9.0,10.0,45,0.00,,,0.00,WeatherCatV1.01B143,2013-01-22 23:31:00,
2013-01-22 18:36:00,18.8,0.1,30.06,NW,318,6.0,14.0,43,0.00,,,0.00,WeatherCatV1.01B143,2013-01-22 23:36:00,
2013-01-22 18:41:00,18.7,1.4,30.06,NW,305,10.0,11.0,46,0.00,,,0.00,WeatherCatV1.01B143,2013-01-22 23:41:00,
2013-01-22 18:46:00,18.6,1.8,30.06,NW,305,5.0,13.0,47,0.00,,,0.00,WeatherCatV1.01B143,2013-01-22 23:46:00,
2013-01-22 18:51:00,18.6,1.3,30.06,NW,311,4.0,12.0,46,0.00,,,0.00,WeatherCatV1.01B143,2013-01-22 23:51:00,
2013-01-22 18:56:00,18.5,1.7,30.07,WNW,301,10.0,11.0,47,0.00,,,0.00,WeatherCatV1.01B143,2013-01-22 23:56:00,
2013-01-22 19:01:00,18.3,1.5,30.07,WNW,299,7.0,13.0,47,0.00,,,0.00,WeatherCatV1.01B143,2013-01-23 00:01:00,
2013-01-22 19:06:00,18.3,1.5,30.07,WNW,298,13.0,13.0,47,0.00,,,0.00,WeatherCatV1.01B143,2013-01-23 00:06:00,
2013-01-22 19:11:00,18.1,1.3,30.07,NW,313,9.0,12.0,47,0.00,,,0.00,WeatherCatV1.01B143,2013-01-23 00:11:00,
2013-01-22 19:16:00,18.0,1.2,30.07,NW,309,9.0,10.0,47,0.00,,,0.00,WeatherCatV1.01B143,2013-01-23 00:16:00,
2013-01-22 19:21:00,18.0,0.8,30.08,NW,305,12.0,12.0,46,0.00,,,0.00,WeatherCatV1.01B143,2013-01-23 00:21:00,
2013-01-22 19:26:00,17.9,1.1,30.08,WNW,297,9.0,9.0,47,0.00,,,0.00,WeatherCatV1.01B143,2013-01-23 00:26:00,
2013-01-22 19:31:00,17.8,1.0,30.08,WNW,298,7.0,8.0,47,0.00,,,0.00,WeatherCatV1.01B143,2013-01-23 00:31:00,
2013-01-22 19:36:00,17.6,1.3,30.08,NW,306,5.0,8.0,48,0.00,,,0.00,WeatherCatV1.01B143,2013-01-23 00:36:00,
2013-01-22 19:41:00,17.4,1.1,30.08,NW,309,4.0,8.0,48,0.00,,,0.00,WeatherCatV1.01B143,2013-01-23 00:41:00,
2013-01-22 19:46:00,17.3,1.0,30.08,NNW,337,4.0,9.0,48,0.00,,,0.00,WeatherCatV1.01B143,2013-01-23 00:46:00,
2013-01-22 19:51:00,17.3,1.0,30.08,NNW,341,4.0,9.0,48,0.00,,,0.00,WeatherCatV1.01B143,2013-01-23 00:51:00,
2013-01-22 19:56:00,17.3,1.0,30.08,WNW,301,4.0,12.0,48,0.00,,,0.00,WeatherCatV1.01B143,2013-01-23 00:56:00,
2013-01-22 20:01:00,17.1,1.3,30.09,NW,309,8.0,8.0,49,0.00,,,0.00,WeatherCatV1.01B143,2013-01-23 01:01:00,
2013-01-22 20:06:00,17.1,1.7,30.09,NW,306,9.0,9.0,50,0.00,,,0.00,WeatherCatV1.01B143,2013-01-23 01:06:00,
2013-01-22 20:11:00,17.0,1.6,30.09,NW,312,8.0,10.0,50,0.00,,,0.00,WeatherCatV1.01B143,2013-01-23 01:11:00,
2013-01-22 20:16:00,17.0,1.2,30.09,NW,312,4.0,5.0,49,0.00,,,0.00,WeatherCatV1.01B143,2013-01-23 01:16:00,
2013-01-22 20:21:00,16.8,1.4,30.09,NW,304,5.0,9.0,50,0.00,,,0.00,WeatherCatV1.01B143,2013-01-23 01:21:00,
2013-01-22 20:26:00,16.7,1.3,30.09,NW,323,6.0,11.0,50,0.00,,,0.00,WeatherCatV1.01B143,2013-01-23 01:26:00,
2013-01-22 20:31:00,16.5,2.0,30.09,NNW,345,8.0,10.0,52,0.00,,,0.00,WeatherCatV1.01B143,2013-01-23 01:31:00,
2013-01-22 20:36:00,16.4,1.9,30.10,NW,305,8.0,12.0,52,0.00,,,0.00,WeatherCatV1.01B143,2013-01-23 01:36:00,
2013-01-22 20:41:00,16.4,1.9,30.10,NW,304,6.0,12.0,52,0.00,,,0.00,WeatherCatV1.01B143,2013-01-23 01:41:00,
2013-01-22 20:46:00,16.3,2.2,30.10,WNW,301,10.0,11.0,53,0.00,,,0.00,WeatherCatV1.01B143,2013-01-23 01:46:00,
2013-01-22 20:51:00,16.3,1.8,30.10,NW,309,6.0,8.0,52,0.00,,,0.00,WeatherCatV1.01B143,2013-01-23 01:51:00,
2013-01-22 20:56:00,16.3,2.2,30.10,NW,306,4.0,8.0,53,0.00,,,0.00,WeatherCatV1.01B143,2013-01-23 01:56:00,
2013-01-22 21:01:00,16.2,2.5,30.10,NW,304,6.0,7.0,54,0.00,,,0.00,WeatherCatV1.01B143,2013-01-23 02:01:00,
2013-01-22 21:06:00,16.1,2.8,30.10,WNW,295,8.0,8.0,55,0.00,,,0.00,WeatherCatV1.01B143,2013-01-23 02:06:00,
2013-01-22 21:11:00,16.1,2.0,30.11,NW,313,6.0,9.0,53,0.00,,,0.00,WeatherCatV1.01B143,2013-01-23 02:11:00,
2013-01-22 21:16:00,16.0,2.3,30.11,WNW,301,5.0,7.0,54,0.00,,,0.00,WeatherCatV1.01B143,2013-01-23 02:16:00,
2013-01-22 21:21:00,15.9,2.2,30.11,NW,309,4.0,6.0,54,0.00,,,0.00,WeatherCatV1.01B143,2013-01-23 02:21:00,
2013-01-22 21:26:00,15.8,2.5,30.12,NW,305,5.0,6.0,55,0.00,,,0.00,WeatherCatV1.01B143,2013-01-23 02:26:00,
2013-01-22 21:31:00,15.8,2.5,30.12,NW,311,4.0,8.0,55,0.00,,,0.00,WeatherCatV1.01B143,2013-01-23 02:31:00,
2013-01-22 21:36:00,15.7,2.0,30.12,NW,310,4.0,9.0,54,0.00,,,0.00,WeatherCatV1.01B143,2013-01-23 02:36:00,
2013-01-22 21:41:00,15.6,2.7,30.12,North,350,5.0,8.0,56,0.00,,,0.00,WeatherCatV1.01B143,2013-01-23 02:41:00,
2013-01-22 21:46:00,15.4,2.9,30.12,NNW,342,4.0,7.0,57,0.00,,,0.00,WeatherCatV1.01B143,2013-01-23 02:46:00,
2013-01-22 21:51:00,15.1,2.6,30.12,NW,308,3.0,8.0,57,0.00,,,0.00,WeatherCatV1.01B143,2013-01-23 02:51:00,
2013-01-22 21:56:00,14.9,2.8,30.12,NW,312,5.0,6.0,58,0.00,,,0.00,WeatherCatV1.01B143,2013-01-23 02:56:00,
2013-01-22 22:01:00,14.9,2.8,30.12,NNW,342,6.0,8.0,58,0.00,,,0.00,WeatherCatV1.01B143,2013-01-23 03:01:00,
2013-01-22 22:06:00,14.9,3.2,30.12,NW,320,4.0,6.0,59,0.00,,,0.00,WeatherCatV1.01B143,2013-01-23 03:06:00,
2013-01-22 22:11:00,14.8,2.7,30.12,WNW,301,5.0,7.0,58,0.00,,,0.00,WeatherCatV1.01B143,2013-01-23 03:11:00,
2013-01-22 22:16:00,14.8,2.7,30.13,NW,309,7.0,8.0,58,0.00,,,0.00,WeatherCatV1.01B143,2013-01-23 03:16:00,
2013-01-22 22:21:00,14.9,2.8,30.13,NW,308,4.0,7.0,58,0.00,,,0.00,WeatherCatV1.01B143,2013-01-23 03:21:00,
2013-01-22 22:26:00,14.8,2.4,30.13,NW,306,9.0,11.0,57,0.00,,,0.00,WeatherCatV1.01B143,2013-01-23 03:26:00,
2013-01-22 22:31:00,14.8,2.4,30.13,NW,313,9.0,9.0,57,0.00,,,0.00,WeatherCatV1.01B143,2013-01-23 03:31:00,
2013-01-22 22:36:00,14.7,2.3,30.13,NW,326,3.0,5.0,57,0.00,,,0.00,WeatherCatV1.01B143,2013-01-23 03:36:00,
2013-01-22 22:41:00,14.5,2.1,30.13,NW,318,5.0,10.0,57,0.00,,,0.00,WeatherCatV1.01B143,2013-01-23 03:41:00,
2013-01-22 22:46:00,14.4,2.4,30.13,NW,312,3.0,9.0,58,0.00,,,0.00,WeatherCatV1.01B143,2013-01-23 03:46:00,
2013-01-22 22:51:00,14.4,2.4,30.14,NW,305,6.0,9.0,58,0.00,,,0.00,WeatherCatV1.01B143,2013-01-23 03:51:00,
2013-01-22 22:56:00,14.3,2.3,30.13,WNW,297,9.0,10.0,58,0.00,,,0.00,WeatherCatV1.01B143,2013-01-23 03:56:00,
2013-01-22 23:01:00,14.3,2.6,30.14,NNW,332,6.0,10.0,59,0.00,,,0.00,WeatherCatV1.01B143,2013-01-23 04:01:00,
2013-01-22 23:06:00,14.2,2.9,30.14,NW,306,7.0,10.0,60,0.00,,,0.00,WeatherCatV1.01B143,2013-01-23 04:06:00,
2013-01-22 23:11:00,14.2,2.5,30.13,NW,305,7.0,9.0,59,0.00,,,0.00,WeatherCatV1.01B143,2013-01-23 04:11:00,
2013-01-22 23:16:00,14.1,2.8,30.13,NW,315,8.0,8.0,60,0.00,,,0.00,WeatherCatV1.01B143,2013-01-23 04:16:00,
2013-01-22 23:21:00,14.2,1.8,30.13,NW,306,10.0,10.0,57,0.00,,,0.00,WeatherCatV1.01B143,2013-01-23 04:21:00,
2013-01-22 23:26:00,14.2,2.2,30.14,NNW,337,3.0,10.0,58,0.00,,,0.00,WeatherCatV1.01B143,2013-01-23 04:26:00,
2013-01-22 23:31:00,14.0,1.6,30.13,NNW,338,5.0,9.0,57,0.00,,,0.00,WeatherCatV1.01B143,2013-01-23 04:31:00,
2013-01-22 23:36:00,13.8,1.8,30.13,NW,311,1.0,6.0,58,0.00,,,0.00,WeatherCatV1.01B143,2013-01-23 04:36:00,
2013-01-22 23:41:00,13.7,1.3,30.14,NW,311,7.0,7.0,57,0.00,,,0.00,WeatherCatV1.01B143,2013-01-23 04:41:00,
2013-01-22 23:46:00,13.6,1.2,30.14,WNW,299,5.0,6.0,57,0.00,,,0.00,WeatherCatV1.01B143,2013-01-23 04:46:00,
2013-01-22 23:51:00,13.4,1.0,30.13,NW,304,3.0,4.0,57,0.00,,,0.00,WeatherCatV1.01B143,2013-01-23 04:51:00,
2013-01-22 23:56:00,13.3,0.9,30.13,NW,304,5.0,7.0,57,0.00,,,0.00,WeatherCatV1.01B143,2013-01-23 04:56:00,